Huvudsida
METAR-TAF:

METAR-TAF

Flygplatser :

Heidrun, Norge

latitud: 65-19-30N, longitud: 007-19-36E, höjd: 0 m

Aktuellt väderrapport

Denna rapport gjordes för 29 minuter sedan, klockan 15:50 UTC
Vind 38 kt från syd
Temperatur 8°C
Fuktighet 93%
Tryck 1005 hPa
Sikt: 4000 m
Mulet på en höjd av 600 ft
regn, fuktdis

METAR: ENHE 141550Z 19038KT 4000 RA BR OVC006 08/07 Q1005 RERA W///S5

Tid: 17:19 (16:19 UTC)

Väderprognos

Denna rapport gjordes för 44 minuter sedan, klockan 15:35 UTC
Prognos gäller från 14 kl. 15 UTC till 14 kl. 24 UTC
Vind 40 kt från syd/sydväst
Sikt: 8000 m
Spridda moln på en höjd av 800 ft
Brutna moln på en höjd av 1200 ft
lätt regn
Temporärt
från 14 kl. 15 UTC till 14 kl. 24 UTC
Sikt: 2000 m
Brutna moln på en höjd av 400 ft
regn, duggregn, fuktdis

TAF: ENHE 141535Z 1415/1424 21040KT 8000 -RA SCT008 BKN012 TEMPO 1415/1424 2000 RADZ BR BKN004

Aktuella väderrapporter och prognoser från 4000 flygplatser (METAR- och TAF-rapporter).

De tillgängliga stationerna syns som gula och röda prickar på kartan.

För musen över prickarna för att se namnen på stationerna.

Klicka sedan för att få väderrapporter och prognoser.

För att ändra kartan: Klicka på de gröna knapparna med ett svart kors på för att zooma in; den gröna knappen med ett streck på för att zooma ut; eller på de gröna pilarna för angränsande kartor.


METAR-TAF: